sensor_id;sensor_type;location;lat;lon;timestamp;P1;durP1;ratioP1;P2;durP2;ratioP2
75887;SDS011;64562;55.662;37.300;2024-01-07T00:01:28;34.15;;;17.83;;
75887;SDS011;64562;55.662;37.300;2024-01-07T00:03:54;37.28;;;18.33;;
75887;SDS011;64562;55.662;37.300;2024-01-07T00:06:21;34.25;;;17.25;;
75887;SDS011;64562;55.662;37.300;2024-01-07T00:08:48;33.83;;;17.50;;
75887;SDS011;64562;55.662;37.300;2024-01-07T00:11:14;38.10;;;18.20;;
75887;SDS011;64562;55.662;37.300;2024-01-07T00:13:43;37.42;;;19.63;;
75887;SDS011;64562;55.662;37.300;2024-01-07T00:16:10;37.63;;;18.80;;
75887;SDS011;64562;55.662;37.300;2024-01-07T00:18:36;35.90;;;19.08;;
75887;SDS011;64562;55.662;37.300;2024-01-07T00:21:04;33.28;;;18.10;;
75887;SDS011;64562;55.662;37.300;2024-01-07T00:23:31;35.55;;;18.25;;
75887;SDS011;64562;55.662;37.300;2024-01-07T00:25:57;35.92;;;18.70;;
75887;SDS011;64562;55.662;37.300;2024-01-07T00:28:24;33.50;;;17.92;;
75887;SDS011;64562;55.662;37.300;2024-01-07T00:30:52;31.75;;;16.40;;
75887;SDS011;64562;55.662;37.300;2024-01-07T00:33:20;31.98;;;17.38;;
75887;SDS011;64562;55.662;37.300;2024-01-07T00:35:48;34.92;;;17.73;;
75887;SDS011;64562;55.662;37.300;2024-01-07T00:38:15;35.97;;;16.90;;
75887;SDS011;64562;55.662;37.300;2024-01-07T00:40:42;33.22;;;18.05;;
75887;SDS011;64562;55.662;37.300;2024-01-07T00:43:08;34.90;;;18.27;;
75887;SDS011;64562;55.662;37.300;2024-01-07T00:45:35;35.05;;;18.00;;
75887;SDS011;64562;55.662;37.300;2024-01-07T00:48:03;34.03;;;17.88;;
75887;SDS011;64562;55.662;37.300;2024-01-07T00:50:30;37.25;;;18.02;;
75887;SDS011;64562;55.662;37.300;2024-01-07T00:52:57;33.13;;;17.48;;
75887;SDS011;64562;55.662;37.300;2024-01-07T00:55:24;34.33;;;18.42;;
75887;SDS011;64562;55.662;37.300;2024-01-07T00:57:50;35.30;;;17.80;;
75887;SDS011;64562;55.662;37.300;2024-01-07T01:00:18;35.53;;;18.50;;
75887;SDS011;64562;55.662;37.300;2024-01-07T01:02:45;31.77;;;16.77;;
75887;SDS011;64562;55.662;37.300;2024-01-07T01:05:13;34.05;;;18.63;;
75887;SDS011;64562;55.662;37.300;2024-01-07T01:07:40;33.45;;;18.75;;
75887;SDS011;64562;55.662;37.300;2024-01-07T01:10:07;34.13;;;18.63;;
75887;SDS011;64562;55.662;37.300;2024-01-07T01:12:34;33.10;;;17.48;;
75887;SDS011;64562;55.662;37.300;2024-01-07T01:15:01;36.10;;;17.27;;
75887;SDS011;64562;55.662;37.300;2024-01-07T01:17:27;31.15;;;16.52;;
75887;SDS011;64562;55.662;37.300;2024-01-07T01:19:54;35.78;;;16.88;;
75887;SDS011;64562;55.662;37.300;2024-01-07T01:22:22;35.83;;;17.25;;
75887;SDS011;64562;55.662;37.300;2024-01-07T01:24:50;33.88;;;17.40;;
75887;SDS011;64562;55.662;37.300;2024-01-07T01:27:18;36.80;;;17.02;;
75887;SDS011;64562;55.662;37.300;2024-01-07T01:29:45;33.47;;;17.52;;
75887;SDS011;64562;55.662;37.300;2024-01-07T01:32:11;31.48;;;17.33;;
75887;SDS011;64562;55.662;37.300;2024-01-07T01:34:39;35.63;;;18.48;;
75887;SDS011;64562;55.662;37.300;2024-01-07T01:37:07;37.42;;;18.40;;
75887;SDS011;64562;55.662;37.300;2024-01-07T01:39:36;34.10;;;18.02;;
75887;SDS011;64562;55.662;37.300;2024-01-07T01:42:03;36.88;;;18.88;;
75887;SDS011;64562;55.662;37.300;2024-01-07T01:44:30;33.40;;;17.98;;
75887;SDS011;64562;55.662;37.300;2024-01-07T01:46:57;36.95;;;18.80;;
75887;SDS011;64562;55.662;37.300;2024-01-07T01:49:25;34.03;;;18.20;;
75887;SDS011;64562;55.662;37.300;2024-01-07T01:51:52;33.72;;;18.63;;
75887;SDS011;64562;55.662;37.300;2024-01-07T01:54:19;39.00;;;18.27;;
75887;SDS011;64562;55.662;37.300;2024-01-07T01:56:47;37.63;;;18.63;;
75887;SDS011;64562;55.662;37.300;2024-01-07T01:59:14;35.92;;;18.30;;
75887;SDS011;64562;55.662;37.300;2024-01-07T02:01:41;34.95;;;19.98;;
75887;SDS011;64562;55.662;37.300;2024-01-07T02:04:08;38.28;;;19.83;;
75887;SDS011;64562;55.662;37.300;2024-01-07T02:06:35;39.85;;;19.50;;
75887;SDS011;64562;55.662;37.300;2024-01-07T02:09:02;38.13;;;20.17;;
75887;SDS011;64562;55.662;37.300;2024-01-07T02:11:28;38.72;;;20.10;;
75887;SDS011;64562;55.662;37.300;2024-01-07T02:13:57;35.58;;;19.55;;
75887;SDS011;64562;55.662;37.300;2024-01-07T02:16:23;32.70;;;19.27;;
75887;SDS011;64562;55.662;37.300;2024-01-07T02:18:50;38.72;;;19.80;;
75887;SDS011;64562;55.662;37.300;2024-01-07T02:21:17;34.28;;;19.08;;
75887;SDS011;64562;55.662;37.300;2024-01-07T02:23:44;38.78;;;19.10;;
75887;SDS011;64562;55.662;37.300;2024-01-07T02:26:12;35.15;;;19.20;;
75887;SDS011;64562;55.662;37.300;2024-01-07T02:28:38;36.25;;;19.00;;
75887;SDS011;64562;55.662;37.300;2024-01-07T02:31:05;36.08;;;18.77;;
75887;SDS011;64562;55.662;37.300;2024-01-07T02:33:32;37.42;;;19.55;;
75887;SDS011;64562;55.662;37.300;2024-01-07T02:35:59;39.42;;;21.42;;
75887;SDS011;64562;55.662;37.300;2024-01-07T02:38:25;38.80;;;19.52;;
75887;SDS011;64562;55.662;37.300;2024-01-07T02:40:52;36.28;;;19.80;;
75887;SDS011;64562;55.662;37.300;2024-01-07T02:43:20;37.97;;;19.33;;
75887;SDS011;64562;55.662;37.300;2024-01-07T02:45:47;37.97;;;19.80;;
75887;SDS011;64562;55.662;37.300;2024-01-07T02:48:14;36.80;;;19.52;;
75887;SDS011;64562;55.662;37.300;2024-01-07T02:50:41;36.97;;;20.38;;
75887;SDS011;64562;55.662;37.300;2024-01-07T02:53:08;36.58;;;19.45;;
75887;SDS011;64562;55.662;37.300;2024-01-07T02:55:36;36.47;;;19.08;;
75887;SDS011;64562;55.662;37.300;2024-01-07T02:58:03;38.17;;;20.17;;
75887;SDS011;64562;55.662;37.300;2024-01-07T03:00:31;37.88;;;18.48;;
75887;SDS011;64562;55.662;37.300;2024-01-07T03:02:57;39.30;;;19.80;;
75887;SDS011;64562;55.662;37.300;2024-01-07T03:05:24;39.13;;;19.92;;
75887;SDS011;64562;55.662;37.300;2024-01-07T03:07:52;37.83;;;20.15;;
75887;SDS011;64562;55.662;37.300;2024-01-07T03:10:19;36.78;;;21.42;;
75887;SDS011;64562;55.662;37.300;2024-01-07T03:12:46;38.72;;;19.95;;
75887;SDS011;64562;55.662;37.300;2024-01-07T03:15:12;33.03;;;18.60;;
75887;SDS011;64562;55.662;37.300;2024-01-07T03:17:41;36.80;;;20.33;;
75887;SDS011;64562;55.662;37.300;2024-01-07T03:20:08;41.33;;;19.60;;
75887;SDS011;64562;55.662;37.300;2024-01-07T03:22:35;34.63;;;18.65;;
75887;SDS011;64562;55.662;37.300;2024-01-07T03:25:02;38.83;;;20.08;;
75887;SDS011;64562;55.662;37.300;2024-01-07T03:27:29;38.45;;;19.45;;
75887;SDS011;64562;55.662;37.300;2024-01-07T03:29:56;40.90;;;19.52;;
75887;SDS011;64562;55.662;37.300;2024-01-07T03:32:23;37.67;;;20.52;;
75887;SDS011;64562;55.662;37.300;2024-01-07T03:34:51;39.67;;;20.25;;
75887;SDS011;64562;55.662;37.300;2024-01-07T03:37:18;40.78;;;22.13;;
75887;SDS011;64562;55.662;37.300;2024-01-07T03:39:45;39.38;;;21.42;;
75887;SDS011;64562;55.662;37.300;2024-01-07T03:42:12;39.83;;;20.10;;
75887;SDS011;64562;55.662;37.300;2024-01-07T03:44:39;37.83;;;20.15;;
75887;SDS011;64562;55.662;37.300;2024-01-07T03:47:06;38.38;;;19.48;;
75887;SDS011;64562;55.662;37.300;2024-01-07T03:49:33;36.88;;;18.40;;
75887;SDS011;64562;55.662;37.300;2024-01-07T03:52:01;38.70;;;20.65;;
75887;SDS011;64562;55.662;37.300;2024-01-07T03:54:27;42.00;;;19.80;;
75887;SDS011;64562;55.662;37.300;2024-01-07T03:56:54;36.90;;;19.35;;
75887;SDS011;64562;55.662;37.300;2024-01-07T03:59:21;37.97;;;19.92;;
75887;SDS011;64562;55.662;37.300;2024-01-07T04:01:50;40.42;;;21.42;;
75887;SDS011;64562;55.662;37.300;2024-01-07T04:04:17;40.03;;;21.13;;
75887;SDS011;64562;55.662;37.300;2024-01-07T04:06:43;44.40;;;22.23;;
75887;SDS011;64562;55.662;37.300;2024-01-07T04:09:11;37.97;;;20.90;;
75887;SDS011;64562;55.662;37.300;2024-01-07T04:11:39;43.05;;;20.40;;
75887;SDS011;64562;55.662;37.300;2024-01-07T04:14:06;37.95;;;20.63;;
75887;SDS011;64562;55.662;37.300;2024-01-07T04:16:32;42.67;;;22.65;;
75887;SDS011;64562;55.662;37.300;2024-01-07T04:18:59;42.08;;;21.23;;
75887;SDS011;64562;55.662;37.300;2024-01-07T04:21:26;44.58;;;20.65;;
75887;SDS011;64562;55.662;37.300;2024-01-07T04:23:53;42.47;;;21.35;;
75887;SDS011;64562;55.662;37.300;2024-01-07T04:26:21;37.03;;;19.65;;
75887;SDS011;64562;55.662;37.300;2024-01-07T04:28:48;37.58;;;20.92;;
75887;SDS011;64562;55.662;37.300;2024-01-07T04:31:14;40.85;;;20.67;;
75887;SDS011;64562;55.662;37.300;2024-01-07T04:33:41;39.88;;;20.65;;
75887;SDS011;64562;55.662;37.300;2024-01-07T04:36:08;36.55;;;20.48;;
75887;SDS011;64562;55.662;37.300;2024-01-07T04:38:35;35.15;;;18.63;;
75887;SDS011;64562;55.662;37.300;2024-01-07T04:41:02;35.15;;;19.25;;
75887;SDS011;64562;55.662;37.300;2024-01-07T04:43:30;38.38;;;19.88;;
75887;SDS011;64562;55.662;37.300;2024-01-07T04:45:56;42.78;;;19.05;;
75887;SDS011;64562;55.662;37.300;2024-01-07T04:48:23;34.15;;;18.48;;
75887;SDS011;64562;55.662;37.300;2024-01-07T04:50:50;37.35;;;19.48;;
75887;SDS011;64562;55.662;37.300;2024-01-07T04:53:17;36.38;;;19.02;;
75887;SDS011;64562;55.662;37.300;2024-01-07T04:55:43;37.85;;;20.45;;
75887;SDS011;64562;55.662;37.300;2024-01-07T04:58:10;38.47;;;19.25;;
75887;SDS011;64562;55.662;37.300;2024-01-07T05:00:38;34.63;;;19.77;;
75887;SDS011;64562;55.662;37.300;2024-01-07T05:03:05;39.30;;;19.52;;
75887;SDS011;64562;55.662;37.300;2024-01-07T05:05:32;34.60;;;18.23;;
75887;SDS011;64562;55.662;37.300;2024-01-07T05:07:58;35.47;;;18.77;;
75887;SDS011;64562;55.662;37.300;2024-01-07T05:10:25;32.83;;;18.02;;
75887;SDS011;64562;55.662;37.300;2024-01-07T05:12:52;36.92;;;18.60;;
75887;SDS011;64562;55.662;37.300;2024-01-07T05:15:19;34.78;;;18.17;;
75887;SDS011;64562;55.662;37.300;2024-01-07T05:17:47;34.20;;;18.17;;
75887;SDS011;64562;55.662;37.300;2024-01-07T05:20:14;32.30;;;18.35;;
75887;SDS011;64562;55.662;37.300;2024-01-07T05:22:41;31.73;;;17.38;;
75887;SDS011;64562;55.662;37.300;2024-01-07T05:25:08;33.85;;;18.15;;
75887;SDS011;64562;55.662;37.300;2024-01-07T05:27:35;32.28;;;18.50;;
75887;SDS011;64562;55.662;37.300;2024-01-07T05:30:02;32.92;;;18.25;;
75887;SDS011;64562;55.662;37.300;2024-01-07T05:32:29;36.30;;;18.75;;
75887;SDS011;64562;55.662;37.300;2024-01-07T05:34:57;35.33;;;18.80;;
75887;SDS011;64562;55.662;37.300;2024-01-07T05:37:24;35.33;;;18.55;;
75887;SDS011;64562;55.662;37.300;2024-01-07T05:39:50;35.97;;;19.33;;
75887;SDS011;64562;55.662;37.300;2024-01-07T05:42:17;38.53;;;18.67;;
75887;SDS011;64562;55.662;37.300;2024-01-07T05:44:45;35.33;;;18.30;;
75887;SDS011;64562;55.662;37.300;2024-01-07T05:47:11;31.63;;;17.25;;
75887;SDS011;64562;55.662;37.300;2024-01-07T05:49:38;31.40;;;17.88;;
75887;SDS011;64562;55.662;37.300;2024-01-07T05:52:06;36.53;;;20.73;;
75887;SDS011;64562;55.662;37.300;2024-01-07T05:54:33;31.38;;;16.90;;
75887;SDS011;64562;55.662;37.300;2024-01-07T05:57:00;35.85;;;17.90;;
75887;SDS011;64562;55.662;37.300;2024-01-07T05:59:26;36.78;;;17.70;;
75887;SDS011;64562;55.662;37.300;2024-01-07T06:01:57;34.65;;;18.15;;
75887;SDS011;64562;55.662;37.300;2024-01-07T06:04:24;37.03;;;18.95;;
75887;SDS011;64562;55.662;37.300;2024-01-07T06:06:51;35.55;;;20.05;;
75887;SDS011;64562;55.662;37.300;2024-01-07T06:09:19;34.92;;;18.92;;
75887;SDS011;64562;55.662;37.300;2024-01-07T06:11:46;35.15;;;18.55;;
75887;SDS011;64562;55.662;37.300;2024-01-07T06:14:13;40.28;;;19.33;;
75887;SDS011;64562;55.662;37.300;2024-01-07T06:16:40;36.42;;;19.17;;
75887;SDS011;64562;55.662;37.300;2024-01-07T06:19:07;38.65;;;19.38;;
75887;SDS011;64562;55.662;37.300;2024-01-07T06:21:34;34.80;;;18.90;;
75887;SDS011;64562;55.662;37.300;2024-01-07T06:24:01;37.53;;;19.60;;
75887;SDS011;64562;55.662;37.300;2024-01-07T06:26:29;40.63;;;19.42;;
75887;SDS011;64562;55.662;37.300;2024-01-07T06:28:56;35.50;;;18.90;;
75887;SDS011;64562;55.662;37.300;2024-01-07T06:31:22;36.78;;;18.67;;
75887;SDS011;64562;55.662;37.300;2024-01-07T06:33:49;36.08;;;19.33;;
75887;SDS011;64562;55.662;37.300;2024-01-07T06:36:16;37.00;;;18.60;;
75887;SDS011;64562;55.662;37.300;2024-01-07T06:38:42;35.28;;;17.38;;
75887;SDS011;64562;55.662;37.300;2024-01-07T06:41:09;36.20;;;18.67;;
75887;SDS011;64562;55.662;37.300;2024-01-07T06:43:37;39.55;;;20.13;;
75887;SDS011;64562;55.662;37.300;2024-01-07T06:46:04;35.55;;;18.95;;
75887;SDS011;64562;55.662;37.300;2024-01-07T06:48:31;36.03;;;19.00;;
75887;SDS011;64562;55.662;37.300;2024-01-07T06:50:58;39.75;;;19.15;;
75887;SDS011;64562;55.662;37.300;2024-01-07T06:53:25;36.00;;;19.20;;
75887;SDS011;64562;55.662;37.300;2024-01-07T06:55:51;36.45;;;18.52;;
75887;SDS011;64562;55.662;37.300;2024-01-07T06:58:18;35.72;;;18.67;;
75887;SDS011;64562;55.662;37.300;2024-01-07T07:00:46;35.63;;;18.48;;
75887;SDS011;64562;55.662;37.300;2024-01-07T07:03:13;36.88;;;18.45;;
75887;SDS011;64562;55.662;37.300;2024-01-07T07:05:40;35.72;;;19.02;;
75887;SDS011;64562;55.662;37.300;2024-01-07T07:08:07;32.88;;;17.77;;
75887;SDS011;64562;55.662;37.300;2024-01-07T07:10:34;32.55;;;18.20;;
75887;SDS011;64562;55.662;37.300;2024-01-07T07:13:00;38.35;;;20.23;;
75887;SDS011;64562;55.662;37.300;2024-01-07T07:15:27;38.97;;;20.00;;
75887;SDS011;64562;55.662;37.300;2024-01-07T07:17:57;37.35;;;19.15;;
75887;SDS011;64562;55.662;37.300;2024-01-07T07:20:24;35.97;;;19.13;;
75887;SDS011;64562;55.662;37.300;2024-01-07T07:22:50;36.47;;;18.70;;
75887;SDS011;64562;55.662;37.300;2024-01-07T07:25:17;37.08;;;18.73;;
75887;SDS011;64562;55.662;37.300;2024-01-07T07:27:44;37.35;;;18.23;;
75887;SDS011;64562;55.662;37.300;2024-01-07T07:30:11;35.22;;;18.63;;
75887;SDS011;64562;55.662;37.300;2024-01-07T07:32:38;35.05;;;18.27;;
75887;SDS011;64562;55.662;37.300;2024-01-07T07:35:07;31.67;;;17.10;;
75887;SDS011;64562;55.662;37.300;2024-01-07T07:37:34;34.78;;;16.98;;
75887;SDS011;64562;55.662;37.300;2024-01-07T07:40:00;34.47;;;17.67;;
75887;SDS011;64562;55.662;37.300;2024-01-07T07:42:28;34.60;;;18.33;;
75887;SDS011;64562;55.662;37.300;2024-01-07T07:44:54;34.05;;;16.95;;
75887;SDS011;64562;55.662;37.300;2024-01-07T07:47:21;34.25;;;18.17;;
75887;SDS011;64562;55.662;37.300;2024-01-07T07:49:48;32.60;;;17.98;;
75887;SDS011;64562;55.662;37.300;2024-01-07T07:52:17;31.35;;;16.52;;
75887;SDS011;64562;55.662;37.300;2024-01-07T07:54:47;35.15;;;17.95;;
75887;SDS011;64562;55.662;37.300;2024-01-07T07:57:14;33.33;;;17.92;;
75887;SDS011;64562;55.662;37.300;2024-01-07T07:59:41;33.28;;;18.48;;
75887;SDS011;64562;55.662;37.300;2024-01-07T08:02:08;37.70;;;20.40;;
75887;SDS011;64562;55.662;37.300;2024-01-07T08:04:34;33.15;;;17.65;;
75887;SDS011;64562;55.662;37.300;2024-01-07T08:07:01;33.75;;;16.92;;
75887;SDS011;64562;55.662;37.300;2024-01-07T08:09:29;33.72;;;17.98;;
75887;SDS011;64562;55.662;37.300;2024-01-07T08:11:56;32.42;;;16.98;;
75887;SDS011;64562;55.662;37.300;2024-01-07T08:14:22;35.67;;;18.50;;
75887;SDS011;64562;55.662;37.300;2024-01-07T08:16:49;33.60;;;18.23;;
75887;SDS011;64562;55.662;37.300;2024-01-07T08:19:16;36.53;;;18.92;;
75887;SDS011;64562;55.662;37.300;2024-01-07T08:21:43;32.47;;;17.02;;
75887;SDS011;64562;55.662;37.300;2024-01-07T08:24:10;32.30;;;17.83;;
75887;SDS011;64562;55.662;37.300;2024-01-07T08:26:38;35.13;;;18.73;;
75887;SDS011;64562;55.662;37.300;2024-01-07T08:29:05;31.73;;;17.67;;
75887;SDS011;64562;55.662;37.300;2024-01-07T08:31:32;32.58;;;17.23;;
75887;SDS011;64562;55.662;37.300;2024-01-07T08:33:59;34.72;;;17.63;;
75887;SDS011;64562;55.662;37.300;2024-01-07T08:36:26;34.28;;;17.15;;
75887;SDS011;64562;55.662;37.300;2024-01-07T08:38:53;31.75;;;17.33;;
75887;SDS011;64562;55.662;37.300;2024-01-07T08:41:18;32.17;;;17.90;;
75887;SDS011;64562;55.662;37.300;2024-01-07T08:43:47;36.08;;;18.20;;
75887;SDS011;64562;55.662;37.300;2024-01-07T08:46:13;33.90;;;19.73;;
75887;SDS011;64562;55.662;37.300;2024-01-07T08:48:40;35.60;;;18.17;;
75887;SDS011;64562;55.662;37.300;2024-01-07T08:51:07;36.80;;;18.83;;
75887;SDS011;64562;55.662;37.300;2024-01-07T08:53:34;33.80;;;18.33;;
75887;SDS011;64562;55.662;37.300;2024-01-07T08:56:01;34.65;;;18.65;;
75887;SDS011;64562;55.662;37.300;2024-01-07T08:58:27;35.80;;;18.92;;
75887;SDS011;64562;55.662;37.300;2024-01-07T09:00:56;31.95;;;18.60;;
75887;SDS011;64562;55.662;37.300;2024-01-07T09:03:22;34.85;;;18.75;;
75887;SDS011;64562;55.662;37.300;2024-01-07T09:05:49;36.58;;;19.52;;
75887;SDS011;64562;55.662;37.300;2024-01-07T09:08:16;36.47;;;19.38;;
75887;SDS011;64562;55.662;37.300;2024-01-07T09:10:43;35.40;;;18.40;;
75887;SDS011;64562;55.662;37.300;2024-01-07T09:13:09;34.42;;;19.10;;
75887;SDS011;64562;55.662;37.300;2024-01-07T09:15:36;31.60;;;17.80;;
75887;SDS011;64562;55.662;37.300;2024-01-07T09:18:05;35.08;;;18.65;;
75887;SDS011;64562;55.662;37.300;2024-01-07T09:20:32;32.92;;;18.02;;
75887;SDS011;64562;55.662;37.300;2024-01-07T09:23:00;35.67;;;17.95;;
75887;SDS011;64562;55.662;37.300;2024-01-07T09:25:26;33.10;;;16.88;;
75887;SDS011;64562;55.662;37.300;2024-01-07T09:27:54;35.22;;;18.33;;
75887;SDS011;64562;55.662;37.300;2024-01-07T09:30:21;36.28;;;19.55;;
75887;SDS011;64562;55.662;37.300;2024-01-07T09:32:48;35.05;;;18.52;;
75887;SDS011;64562;55.662;37.300;2024-01-07T09:35:17;39.25;;;18.90;;
75887;SDS011;64562;55.662;37.300;2024-01-07T09:37:43;35.22;;;18.80;;
75887;SDS011;64562;55.662;37.300;2024-01-07T09:40:12;35.10;;;19.48;;
75887;SDS011;64562;55.662;37.300;2024-01-07T09:42:39;36.45;;;17.67;;
75887;SDS011;64562;55.662;37.300;2024-01-07T09:45:06;35.33;;;17.90;;
75887;SDS011;64562;55.662;37.300;2024-01-07T09:47:33;32.05;;;17.55;;
75887;SDS011;64562;55.662;37.300;2024-01-07T09:50:00;32.25;;;17.38;;
75887;SDS011;64562;55.662;37.300;2024-01-07T09:52:32;36.47;;;18.27;;
75887;SDS011;64562;55.662;37.300;2024-01-07T09:55:03;34.97;;;18.05;;
75887;SDS011;64562;55.662;37.300;2024-01-07T09:57:31;35.95;;;18.30;;
75887;SDS011;64562;55.662;37.300;2024-01-07T10:00:01;34.60;;;18.40;;
75887;SDS011;64562;55.662;37.300;2024-01-07T10:02:29;32.70;;;18.00;;
75887;SDS011;64562;55.662;37.300;2024-01-07T10:04:56;36.35;;;18.60;;
75887;SDS011;64562;55.662;37.300;2024-01-07T10:07:23;32.95;;;18.00;;
75887;SDS011;64562;55.662;37.300;2024-01-07T10:09:59;35.40;;;18.42;;
75887;SDS011;64562;55.662;37.300;2024-01-07T10:12:37;34.97;;;18.08;;
75887;SDS011;64562;55.662;37.300;2024-01-07T10:15:06;34.53;;;17.70;;
75887;SDS011;64562;55.662;37.300;2024-01-07T10:17:34;34.05;;;18.15;;
75887;SDS011;64562;55.662;37.300;2024-01-07T10:22:31;35.80;;;17.95;;
75887;SDS011;64562;55.662;37.300;2024-01-07T10:25:02;35.90;;;19.33;;
75887;SDS011;64562;55.662;37.300;2024-01-07T10:27:29;35.63;;;18.98;;
75887;SDS011;64562;55.662;37.300;2024-01-07T10:29:58;38.58;;;18.63;;
75887;SDS011;64562;55.662;37.300;2024-01-07T10:32:25;36.67;;;19.33;;
75887;SDS011;64562;55.662;37.300;2024-01-07T10:34:52;38.35;;;19.38;;
75887;SDS011;64562;55.662;37.300;2024-01-07T10:37:24;35.78;;;18.98;;
75887;SDS011;64562;55.662;37.300;2024-01-07T10:39:52;36.92;;;18.95;;
75887;SDS011;64562;55.662;37.300;2024-01-07T10:42:22;35.50;;;18.90;;
75887;SDS011;64562;55.662;37.300;2024-01-07T10:44:50;34.50;;;18.15;;
75887;SDS011;64562;55.662;37.300;2024-01-07T10:47:17;32.13;;;17.85;;
75887;SDS011;64562;55.662;37.300;2024-01-07T10:49:47;35.58;;;18.67;;
75887;SDS011;64562;55.662;37.300;2024-01-07T10:52:18;34.53;;;19.33;;
75887;SDS011;64562;55.662;37.300;2024-01-07T10:54:47;33.70;;;17.35;;
75887;SDS011;64562;55.662;37.300;2024-01-07T10:57:24;35.60;;;18.75;;
75887;SDS011;64562;55.662;37.300;2024-01-07T10:59:57;34.97;;;18.70;;
75887;SDS011;64562;55.662;37.300;2024-01-07T11:02:31;36.35;;;18.70;;
75887;SDS011;64562;55.662;37.300;2024-01-07T11:05:01;34.72;;;18.75;;
75887;SDS011;64562;55.662;37.300;2024-01-07T11:07:34;34.45;;;18.80;;
75887;SDS011;64562;55.662;37.300;2024-01-07T11:10:07;35.35;;;18.77;;
75887;SDS011;64562;55.662;37.300;2024-01-07T11:12:39;38.38;;;18.58;;
75887;SDS011;64562;55.662;37.300;2024-01-07T11:15:09;36.03;;;18.45;;
75887;SDS011;64562;55.662;37.300;2024-01-07T11:17:40;37.30;;;19.23;;
75887;SDS011;64562;55.662;37.300;2024-01-07T11:20:12;36.85;;;19.58;;
75887;SDS011;64562;55.662;37.300;2024-01-07T11:22:42;35.17;;;18.85;;
75887;SDS011;64562;55.662;37.300;2024-01-07T11:27:57;37.88;;;19.13;;
75887;SDS011;64562;55.662;37.300;2024-01-07T11:30:26;33.05;;;17.48;;
75887;SDS011;64562;55.662;37.300;2024-01-07T11:32:57;34.17;;;17.63;;
75887;SDS011;64562;55.662;37.300;2024-01-07T11:38:07;33.33;;;17.55;;
75887;SDS011;64562;55.662;37.300;2024-01-07T11:40:35;33.28;;;18.52;;
75887;SDS011;64562;55.662;37.300;2024-01-07T11:43:02;35.95;;;18.38;;
75887;SDS011;64562;55.662;37.300;2024-01-07T11:45:32;36.90;;;19.05;;
75887;SDS011;64562;55.662;37.300;2024-01-07T11:47:58;33.00;;;17.60;;
75887;SDS011;64562;55.662;37.300;2024-01-07T11:50:25;39.00;;;18.50;;
75887;SDS011;64562;55.662;37.300;2024-01-07T11:52:53;36.35;;;19.23;;
75887;SDS011;64562;55.662;37.300;2024-01-07T11:55:20;34.80;;;18.45;;
75887;SDS011;64562;55.662;37.300;2024-01-07T11:57:47;35.58;;;18.40;;
75887;SDS011;64562;55.662;37.300;2024-01-07T12:00:14;36.70;;;18.67;;
75887;SDS011;64562;55.662;37.300;2024-01-07T12:02:42;34.22;;;18.85;;
75887;SDS011;64562;55.662;37.300;2024-01-07T12:05:09;36.67;;;18.45;;
75887;SDS011;64562;55.662;37.300;2024-01-07T12:07:35;39.78;;;20.17;;
75887;SDS011;64562;55.662;37.300;2024-01-07T12:10:02;38.63;;;19.52;;
75887;SDS011;64562;55.662;37.300;2024-01-07T12:12:29;39.72;;;20.08;;
75887;SDS011;64562;55.662;37.300;2024-01-07T12:14:56;40.90;;;19.02;;
75887;SDS011;64562;55.662;37.300;2024-01-07T12:17:23;37.60;;;19.73;;
75887;SDS011;64562;55.662;37.300;2024-01-07T12:19:51;39.97;;;20.33;;
75887;SDS011;64562;55.662;37.300;2024-01-07T12:22:17;39.38;;;20.65;;
75887;SDS011;64562;55.662;37.300;2024-01-07T12:24:44;42.80;;;21.95;;
75887;SDS011;64562;55.662;37.300;2024-01-07T12:27:11;43.42;;;22.20;;
75887;SDS011;64562;55.662;37.300;2024-01-07T12:29:41;38.92;;;20.13;;
75887;SDS011;64562;55.662;37.300;2024-01-07T12:32:08;44.10;;;21.00;;
75887;SDS011;64562;55.662;37.300;2024-01-07T12:34:36;42.38;;;21.63;;
75887;SDS011;64562;55.662;37.300;2024-01-07T12:37:04;42.17;;;21.75;;
75887;SDS011;64562;55.662;37.300;2024-01-07T12:39:31;42.13;;;21.10;;
75887;SDS011;64562;55.662;37.300;2024-01-07T12:41:57;43.45;;;21.65;;
75887;SDS011;64562;55.662;37.300;2024-01-07T12:44:26;41.88;;;21.52;;
75887;SDS011;64562;55.662;37.300;2024-01-07T12:46:53;44.28;;;22.95;;
75887;SDS011;64562;55.662;37.300;2024-01-07T12:49:20;42.85;;;21.85;;
75887;SDS011;64562;55.662;37.300;2024-01-07T12:51:47;46.42;;;22.65;;
75887;SDS011;64562;55.662;37.300;2024-01-07T12:54:15;40.97;;;22.13;;
75887;SDS011;64562;55.662;37.300;2024-01-07T12:56:42;50.40;;;24.67;;
75887;SDS011;64562;55.662;37.300;2024-01-07T12:59:09;45.83;;;23.02;;
75887;SDS011;64562;55.662;37.300;2024-01-07T13:01:36;48.83;;;23.17;;
75887;SDS011;64562;55.662;37.300;2024-01-07T13:04:03;47.58;;;23.05;;
75887;SDS011;64562;55.662;37.300;2024-01-07T13:06:29;43.60;;;24.15;;
75887;SDS011;64562;55.662;37.300;2024-01-07T13:08:56;47.13;;;23.13;;
75887;SDS011;64562;55.662;37.300;2024-01-07T13:11:24;49.67;;;24.25;;
75887;SDS011;64562;55.662;37.300;2024-01-07T13:13:51;43.22;;;23.42;;
75887;SDS011;64562;55.662;37.300;2024-01-07T13:16:18;43.20;;;21.80;;
75887;SDS011;64562;55.662;37.300;2024-01-07T13:18:44;41.33;;;22.70;;
75887;SDS011;64562;55.662;37.300;2024-01-07T13:21:11;45.63;;;23.88;;
75887;SDS011;64562;55.662;37.300;2024-01-07T13:23:38;42.25;;;22.17;;
75887;SDS011;64562;55.662;37.300;2024-01-07T13:26:07;45.42;;;23.70;;
75887;SDS011;64562;55.662;37.300;2024-01-07T13:28:36;44.47;;;22.17;;
75887;SDS011;64562;55.662;37.300;2024-01-07T13:31:03;43.97;;;22.52;;
75887;SDS011;64562;55.662;37.300;2024-01-07T13:33:31;45.42;;;22.65;;
75887;SDS011;64562;55.662;37.300;2024-01-07T13:35:58;42.22;;;22.80;;
75887;SDS011;64562;55.662;37.300;2024-01-07T13:38:25;40.58;;;21.48;;
75887;SDS011;64562;55.662;37.300;2024-01-07T13:40:52;38.30;;;21.60;;
75887;SDS011;64562;55.662;37.300;2024-01-07T13:43:19;44.10;;;22.90;;
75887;SDS011;64562;55.662;37.300;2024-01-07T13:45:50;42.45;;;24.30;;
75887;SDS011;64562;55.662;37.300;2024-01-07T13:48:17;45.67;;;21.98;;
75887;SDS011;64562;55.662;37.300;2024-01-07T13:50:43;43.45;;;21.00;;
75887;SDS011;64562;55.662;37.300;2024-01-07T13:53:13;43.50;;;22.35;;
75887;SDS011;64562;55.662;37.300;2024-01-07T13:55:39;41.42;;;21.23;;
75887;SDS011;64562;55.662;37.300;2024-01-07T13:58:06;41.15;;;23.13;;
75887;SDS011;64562;55.662;37.300;2024-01-07T14:00:33;44.17;;;22.23;;
75887;SDS011;64562;55.662;37.300;2024-01-07T14:03:02;42.65;;;22.30;;
75887;SDS011;64562;55.662;37.300;2024-01-07T14:05:28;41.97;;;21.67;;
75887;SDS011;64562;55.662;37.300;2024-01-07T14:07:55;43.00;;;22.00;;
75887;SDS011;64562;55.662;37.300;2024-01-07T14:10:22;44.80;;;22.73;;
75887;SDS011;64562;55.662;37.300;2024-01-07T14:12:49;45.80;;;22.13;;
75887;SDS011;64562;55.662;37.300;2024-01-07T14:15:16;41.60;;;22.35;;
75887;SDS011;64562;55.662;37.300;2024-01-07T14:17:43;45.67;;;23.00;;